createdAt,value
2022-10-01T00:01:19.362Z,4.60
2022-10-01T00:03:47.663Z,5.20
2022-10-01T00:06:20.397Z,5.50
2022-10-01T00:08:50.270Z,5.10
2022-10-01T00:11:23.558Z,5.90
2022-10-01T00:13:51.414Z,5.30
2022-10-01T00:16:26.949Z,5.50
2022-10-01T00:18:55.643Z,5.80
2022-10-01T00:21:27.128Z,5.07
2022-10-01T00:24:03.332Z,6.50
2022-10-01T00:26:33.031Z,5.63
2022-10-01T00:29:10.181Z,6.13
2022-10-01T00:31:37.494Z,5.40
2022-10-01T00:34:05.060Z,6.33
2022-10-01T00:36:33.091Z,6.47
2022-10-01T00:39:02.929Z,5.83
2022-10-01T00:41:32.570Z,5.93
2022-10-01T00:44:02.466Z,5.53
2022-10-01T00:46:40.367Z,5.40
2022-10-01T00:49:15.307Z,5.77
2022-10-01T00:51:49.742Z,6.07
2022-10-01T00:54:34.376Z,5.97
2022-10-01T00:57:02.470Z,5.97
2022-10-01T00:59:30.288Z,6.03
2022-10-01T01:01:57.306Z,6.07
2022-10-01T01:04:24.023Z,7.00
2022-10-01T01:06:57.764Z,6.00
2022-10-01T01:09:46.874Z,5.30
2022-10-01T01:12:19.677Z,5.27
2022-10-01T01:15:20.489Z,6.77
2022-10-01T01:18:22.875Z,6.60
2022-10-01T01:21:30.157Z,6.03
2022-10-01T01:24:23.668Z,6.20
2022-10-01T01:26:56.155Z,5.43
2022-10-01T01:29:29.041Z,5.63
2022-10-01T01:32:02.645Z,5.33
2022-10-01T01:34:31.453Z,5.87
2022-10-01T01:37:12.437Z,5.93
2022-10-01T01:39:43.974Z,5.20
2022-10-01T01:42:27.969Z,5.10
2022-10-01T01:44:58.207Z,4.87
2022-10-01T01:47:29.547Z,5.07
2022-10-01T01:49:58.042Z,5.13
2022-10-01T01:52:24.858Z,5.80
2022-10-01T01:54:52.420Z,4.90
2022-10-01T01:57:20.371Z,4.80
2022-10-01T01:59:47.301Z,5.00
2022-10-01T02:02:23.427Z,5.50
2022-10-01T02:05:00.233Z,5.00
2022-10-01T02:08:12.605Z,5.30
2022-10-01T02:10:58.023Z,5.47
2022-10-01T02:13:50.363Z,5.43
2022-10-01T02:16:48.078Z,5.43
2022-10-01T02:19:23.093Z,5.53
2022-10-01T02:22:14.342Z,6.50
2022-10-01T02:25:00.100Z,5.63
2022-10-01T02:27:29.461Z,5.03
2022-10-01T02:30:07.196Z,5.20
2022-10-01T02:32:39.563Z,5.80
2022-10-01T02:35:08.572Z,5.47
2022-10-01T02:37:37.510Z,6.27
2022-10-01T02:40:08.430Z,5.77
2022-10-01T02:42:36.172Z,5.73
2022-10-01T02:45:04.939Z,4.50
2022-10-01T02:47:44.537Z,6.33
2022-10-01T02:50:13.047Z,5.90
2022-10-01T02:52:49.504Z,5.83
2022-10-01T02:55:34.170Z,5.27
2022-10-01T02:58:01.174Z,5.30
2022-10-01T03:00:28.598Z,5.60
2022-10-01T03:02:55.501Z,5.23
2022-10-01T03:05:22.450Z,5.90
2022-10-01T03:07:49.500Z,5.03
2022-10-01T03:10:16.595Z,5.50
2022-10-01T03:12:46.506Z,4.83
2022-10-01T03:15:15.747Z,5.13
2022-10-01T03:17:42.930Z,5.10
2022-10-01T03:20:10.762Z,5.60
2022-10-01T03:22:37.753Z,5.63
2022-10-01T03:25:04.873Z,4.93
2022-10-01T03:27:31.618Z,4.20
2022-10-01T03:29:58.305Z,5.13
2022-10-01T03:32:25.204Z,4.17
2022-10-01T03:34:51.869Z,5.20
2022-10-01T03:37:18.565Z,4.47
2022-10-01T03:39:45.262Z,4.20
2022-10-01T03:42:11.924Z,4.37
2022-10-01T03:44:38.688Z,4.87
2022-10-01T03:47:05.419Z,4.10
2022-10-01T03:49:32.246Z,4.43
2022-10-01T03:51:59.186Z,5.40
2022-10-01T03:54:26.290Z,5.10
2022-10-01T03:56:53.353Z,4.63
2022-10-01T03:59:20.576Z,5.87
2022-10-01T04:01:47.514Z,5.10
2022-10-01T04:04:14.963Z,4.60
2022-10-01T04:06:41.643Z,5.00
2022-10-01T04:09:09.713Z,3.97
2022-10-01T04:11:37.425Z,3.97
2022-10-01T04:14:04.580Z,4.20
2022-10-01T04:16:34.690Z,3.73
2022-10-01T04:19:02.498Z,4.30
2022-10-01T04:21:29.255Z,4.03
2022-10-01T04:23:56.131Z,3.90
2022-10-01T04:26:22.849Z,3.23
2022-10-01T04:28:49.506Z,3.40
2022-10-01T04:31:25.210Z,3.57
2022-10-01T04:33:57.109Z,4.10
2022-10-01T04:36:25.130Z,3.97
2022-10-01T04:38:58.007Z,3.93
2022-10-01T04:41:30.314Z,3.33
2022-10-01T04:43:59.367Z,3.50
2022-10-01T04:46:26.453Z,3.23
2022-10-01T04:48:53.381Z,3.93
2022-10-01T04:51:20.107Z,2.87
2022-10-01T04:53:47.018Z,3.13
2022-10-01T04:56:13.799Z,3.63
2022-10-01T04:58:41.262Z,3.10
2022-10-01T05:01:08.115Z,2.67
2022-10-01T05:03:34.894Z,2.70
2022-10-01T05:06:01.829Z,3.33
2022-10-01T05:08:28.874Z,3.20
2022-10-01T05:10:55.595Z,3.20
2022-10-01T05:13:22.285Z,3.80
2022-10-01T05:15:50.867Z,3.47
2022-10-01T05:18:17.583Z,2.73
2022-10-01T05:20:44.285Z,3.23
2022-10-01T05:23:10.995Z,3.20
2022-10-01T05:25:37.696Z,2.53
2022-10-01T05:28:05.659Z,2.77
2022-10-01T05:30:33.967Z,3.40
2022-10-01T05:33:02.272Z,2.30
2022-10-01T05:35:29.480Z,2.40
2022-10-01T05:37:58.143Z,2.30
2022-10-01T05:40:27.383Z,2.10
2022-10-01T05:42:56.138Z,2.13
2022-10-01T05:45:23.709Z,2.40
2022-10-01T05:48:04.728Z,2.33
2022-10-01T05:50:34.514Z,2.17
2022-10-01T05:53:02.023Z,2.30
2022-10-01T05:55:34.475Z,2.50
2022-10-01T05:58:06.521Z,2.40
2022-10-01T06:00:34.881Z,2.47
2022-10-01T06:03:03.029Z,2.27
2022-10-01T06:05:31.307Z,2.00
2022-10-01T06:07:58.655Z,2.13
2022-10-01T06:10:28.248Z,2.27
2022-10-01T06:13:01.004Z,2.00
2022-10-01T06:15:28.505Z,2.33
2022-10-01T06:17:55.481Z,2.40
2022-10-01T06:20:22.276Z,2.00
2022-10-01T06:22:56.449Z,2.33
2022-10-01T06:25:24.289Z,1.90
2022-10-01T06:27:57.804Z,2.60
2022-10-01T06:30:29.588Z,2.70
2022-10-01T06:33:13.255Z,3.10
2022-10-01T06:35:45.419Z,3.07
2022-10-01T06:38:12.396Z,2.90
2022-10-01T06:40:39.697Z,2.70
2022-10-01T06:43:08.256Z,2.53
2022-10-01T06:45:43.433Z,2.57
2022-10-01T06:48:13.938Z,2.57
2022-10-01T06:50:42.496Z,2.50
2022-10-01T06:53:09.472Z,3.10
2022-10-01T06:55:37.560Z,3.40
2022-10-01T06:58:07.006Z,2.60
2022-10-01T07:00:36.361Z,2.20
2022-10-01T07:03:06.466Z,2.60
2022-10-01T07:05:33.409Z,1.80
2022-10-01T07:08:00.278Z,1.83
2022-10-01T07:10:27.023Z,1.93
2022-10-01T07:12:53.750Z,2.27
2022-10-01T07:15:25.645Z,2.00
2022-10-01T07:17:52.776Z,2.10
2022-10-01T07:20:21.099Z,2.83
2022-10-01T07:22:49.589Z,2.50
2022-10-01T07:25:17.334Z,2.40
2022-10-01T07:27:44.180Z,2.27
2022-10-01T07:30:11.274Z,2.73
2022-10-01T07:32:38.028Z,2.30
2022-10-01T07:35:05.884Z,2.60
2022-10-01T07:37:32.615Z,2.97
2022-10-01T07:40:00.458Z,3.07
2022-10-01T07:42:29.928Z,3.00
2022-10-01T07:44:56.960Z,3.50
2022-10-01T07:47:23.695Z,3.70
2022-10-01T07:49:50.363Z,3.43
2022-10-01T07:52:17.084Z,3.67
2022-10-01T07:54:44.001Z,3.70
2022-10-01T07:57:10.809Z,3.10
2022-10-01T07:59:38.074Z,2.97
2022-10-01T08:02:04.834Z,3.33
2022-10-01T08:04:50.132Z,3.40
2022-10-01T08:07:16.955Z,3.53
2022-10-01T08:09:43.659Z,2.80
2022-10-01T08:12:10.362Z,3.27
2022-10-01T08:14:37.052Z,2.90
2022-10-01T08:17:03.815Z,3.50
2022-10-01T08:19:30.834Z,3.30
2022-10-01T08:21:57.568Z,3.37
2022-10-01T08:24:24.875Z,3.20
2022-10-01T08:26:54.405Z,3.10
2022-10-01T08:29:21.306Z,3.03
2022-10-01T08:31:49.258Z,3.57
2022-10-01T08:34:16.084Z,3.60
2022-10-01T08:36:42.794Z,3.67
2022-10-01T08:39:09.647Z,4.60
2022-10-01T08:41:57.566Z,3.57
2022-10-01T08:44:30.715Z,3.30
2022-10-01T08:47:01.853Z,3.47
2022-10-01T08:49:35.243Z,6.03
2022-10-01T08:52:05.413Z,4.23
2022-10-01T08:54:42.914Z,4.03
2022-10-01T08:57:22.918Z,4.00
2022-10-01T08:59:56.166Z,4.07
2022-10-01T09:02:32.700Z,3.87
2022-10-01T09:05:07.429Z,4.10
2022-10-01T09:07:49.481Z,3.97
2022-10-01T09:10:25.931Z,3.77
2022-10-01T09:13:19.761Z,3.93
2022-10-01T09:15:58.902Z,5.10
2022-10-01T09:18:54.863Z,4.40
2022-10-01T09:21:47.751Z,4.60
2022-10-01T09:24:20.551Z,4.13
2022-10-01T09:26:50.919Z,4.10
2022-10-01T09:29:25.781Z,4.40
2022-10-01T09:31:55.280Z,4.73
2022-10-01T09:34:32.034Z,5.07
2022-10-01T09:37:14.729Z,4.40
2022-10-01T09:40:19.198Z,5.07
2022-10-01T09:42:47.973Z,4.20
2022-10-01T09:45:16.981Z,5.70
2022-10-01T09:47:48.548Z,5.90
2022-10-01T09:50:19.801Z,4.80
2022-10-01T09:52:50.161Z,4.77
2022-10-01T09:55:20.049Z,4.00
2022-10-01T09:57:56.125Z,4.10
2022-10-01T10:00:26.108Z,4.10
2022-10-01T10:02:54.831Z,3.50
2022-10-01T10:05:31.130Z,3.37
2022-10-01T10:08:10.952Z,3.53
2022-10-01T10:10:40.012Z,3.17
2022-10-01T10:13:10.703Z,2.97
2022-10-01T10:15:50.540Z,3.27
2022-10-01T10:18:25.942Z,2.87
2022-10-01T10:20:54.451Z,3.30
2022-10-01T10:23:26.391Z,3.20
2022-10-01T10:26:02.971Z,3.07
2022-10-01T10:28:50.026Z,2.87
2022-10-01T10:31:22.592Z,2.87
2022-10-01T10:34:06.506Z,2.70
2022-10-01T10:36:36.314Z,2.90
2022-10-01T10:39:06.503Z,3.10
2022-10-01T10:41:34.719Z,3.30
2022-10-01T10:44:06.133Z,2.50
2022-10-01T10:46:35.469Z,2.87
2022-10-01T10:49:08.043Z,3.10
2022-10-01T10:52:17.692Z,3.23
2022-10-01T10:54:48.371Z,2.63
2022-10-01T10:57:32.325Z,2.37
2022-10-01T11:00:18.634Z,2.60
2022-10-01T11:03:01.386Z,2.93
2022-10-01T11:05:39.122Z,2.97
2022-10-01T11:08:11.958Z,2.73
2022-10-01T11:10:46.960Z,2.93
2022-10-01T11:13:25.711Z,2.57
2022-10-01T11:16:20.425Z,2.63
2022-10-01T11:18:56.482Z,3.30
2022-10-01T11:21:31.542Z,2.40
2022-10-01T11:24:04.277Z,2.40
2022-10-01T11:26:53.503Z,2.47
2022-10-01T11:29:37.289Z,2.37
2022-10-01T11:32:28.487Z,2.67
2022-10-01T11:35:13.267Z,2.20
2022-10-01T11:38:17.665Z,2.60
2022-10-01T11:40:53.371Z,2.80
2022-10-01T11:43:47.726Z,2.63
2022-10-01T11:46:27.108Z,2.33
2022-10-01T11:49:08.941Z,1.67
2022-10-01T11:51:42.956Z,2.47
2022-10-01T11:54:17.454Z,2.67
2022-10-01T11:57:10.243Z,2.60
2022-10-01T11:59:49.902Z,2.20
2022-10-01T12:02:49.925Z,2.43
2022-10-01T12:05:23.130Z,2.20
2022-10-01T12:08:18.771Z,2.63
2022-10-01T12:10:54.968Z,2.93
2022-10-01T12:13:40.171Z,2.30
2022-10-01T12:16:43.215Z,1.93
2022-10-01T12:19:28.693Z,2.17
2022-10-01T12:22:03.577Z,2.10
2022-10-01T12:24:36.286Z,2.37
2022-10-01T12:27:26.464Z,2.60
2022-10-01T12:30:04.226Z,2.13
2022-10-01T12:32:46.786Z,1.97
2022-10-01T12:35:36.367Z,1.70
2022-10-01T12:38:08.813Z,2.50
2022-10-01T12:41:11.282Z,2.13
2022-10-01T12:43:49.169Z,2.20
2022-10-01T12:46:35.087Z,2.30
2022-10-01T12:49:24.044Z,2.07
2022-10-01T12:52:24.403Z,2.90
2022-10-01T12:54:57.534Z,2.67
2022-10-01T12:57:36.826Z,2.40
2022-10-01T13:00:34.683Z,2.43
2022-10-01T13:03:17.864Z,2.90
2022-10-01T13:05:50.486Z,2.87
2022-10-01T13:08:17.209Z,2.10
2022-10-01T13:11:06.701Z,2.00
2022-10-01T13:13:34.604Z,2.30
2022-10-01T13:16:43.792Z,2.17
2022-10-01T13:19:24.497Z,1.60
2022-10-01T13:21:53.250Z,2.20
2022-10-01T13:24:38.602Z,1.70
2022-10-01T13:27:28.411Z,2.50
2022-10-01T13:30:04.232Z,2.87
2022-10-01T13:32:37.517Z,2.53
2022-10-01T13:35:31.540Z,1.73
2022-10-01T13:38:01.951Z,1.83
2022-10-01T13:40:31.547Z,2.13
2022-10-01T13:43:13.157Z,1.93
2022-10-01T13:45:43.729Z,2.37
2022-10-01T13:48:10.482Z,2.07
2022-10-01T13:50:40.375Z,3.47
2022-10-01T13:53:20.617Z,2.07
2022-10-01T13:55:52.611Z,2.03
2022-10-01T13:58:30.189Z,2.20
2022-10-01T14:01:03.355Z,1.90
2022-10-01T14:03:49.746Z,2.00
2022-10-01T14:06:31.125Z,2.23
2022-10-01T14:09:13.786Z,2.00
2022-10-01T14:12:03.948Z,2.67
2022-10-01T14:14:58.980Z,2.07
2022-10-01T14:17:30.189Z,2.20
2022-10-01T14:19:58.065Z,2.00
2022-10-01T14:23:07.368Z,2.30
2022-10-01T14:25:39.818Z,2.00
2022-10-01T14:28:20.497Z,2.13
2022-10-01T14:30:58.461Z,2.00
2022-10-01T14:33:42.047Z,2.20
2022-10-01T14:36:29.503Z,1.80
2022-10-01T14:39:21.173Z,1.93
2022-10-01T14:41:50.390Z,1.90
2022-10-01T14:44:23.056Z,1.83
2022-10-01T14:46:51.269Z,1.90
2022-10-01T14:49:24.248Z,2.67
2022-10-01T14:51:55.258Z,2.30
2022-10-01T14:54:23.307Z,2.30
2022-10-01T14:56:50.890Z,2.07
2022-10-01T14:59:30.389Z,2.10
2022-10-01T15:02:03.841Z,1.60
2022-10-01T15:04:30.666Z,2.30
2022-10-01T15:07:04.656Z,1.90
2022-10-01T15:09:33.954Z,1.90
2022-10-01T15:12:01.172Z,1.90
2022-10-01T15:14:28.122Z,2.17
2022-10-01T15:16:55.296Z,2.27
2022-10-01T15:19:23.692Z,1.90
2022-10-01T15:21:56.241Z,2.10
2022-10-01T15:24:26.075Z,2.33
2022-10-01T15:26:54.435Z,2.30
2022-10-01T15:29:21.294Z,2.13
2022-10-01T15:31:50.432Z,2.27
2022-10-01T15:34:19.326Z,2.13
2022-10-01T15:36:48.319Z,2.00
2022-10-01T15:39:38.694Z,2.57
2022-10-01T15:42:25.636Z,1.90
2022-10-01T15:45:22.102Z,2.20
2022-10-01T15:47:51.834Z,2.30
2022-10-01T15:50:24.692Z,2.03
2022-10-01T15:53:06.435Z,2.40
2022-10-01T15:55:43.728Z,2.70
2022-10-01T15:58:10.419Z,2.27
2022-10-01T16:00:57.969Z,2.03
2022-10-01T16:03:29.968Z,2.70
2022-10-01T16:05:59.104Z,2.90
2022-10-01T16:08:34.072Z,1.70
2022-10-01T16:11:13.032Z,2.23
2022-10-01T16:13:45.539Z,2.40
2022-10-01T16:16:29.915Z,2.13
2022-10-01T16:19:18.623Z,2.27
2022-10-01T16:22:18.931Z,2.73
2022-10-01T16:24:57.561Z,2.20
2022-10-01T16:27:28.061Z,2.40
2022-10-01T16:30:23.105Z,2.83
2022-10-01T16:32:49.834Z,2.60
2022-10-01T16:35:21.500Z,2.53
2022-10-01T16:37:50.184Z,2.50
2022-10-01T16:40:18.258Z,2.20
2022-10-01T16:42:46.755Z,2.10
2022-10-01T16:45:17.778Z,2.40
2022-10-01T16:47:45.315Z,2.00
2022-10-01T16:50:14.450Z,1.57
2022-10-01T16:52:41.379Z,2.10
2022-10-01T16:55:22.739Z,2.97
2022-10-01T16:57:50.652Z,2.40
2022-10-01T17:00:19.119Z,2.50
2022-10-01T17:02:45.989Z,2.57
2022-10-01T17:05:19.831Z,2.10
2022-10-01T17:07:46.726Z,3.00
2022-10-01T17:10:13.969Z,2.67
2022-10-01T17:12:41.346Z,2.77
2022-10-01T17:15:11.814Z,2.40
2022-10-01T17:17:38.563Z,2.50
2022-10-01T17:20:05.546Z,2.03
2022-10-01T17:22:32.382Z,2.50
2022-10-01T17:24:59.161Z,2.57
2022-10-01T17:27:25.940Z,3.10
2022-10-01T17:29:53.472Z,2.20
2022-10-01T17:32:20.186Z,2.70
2022-10-01T17:34:46.863Z,2.30
2022-10-01T17:37:13.846Z,2.60
2022-10-01T17:39:42.811Z,2.53
2022-10-01T17:42:10.614Z,3.37
2022-10-01T17:44:37.344Z,2.70
2022-10-01T17:47:04.516Z,2.10
2022-10-01T17:49:31.289Z,2.60
2022-10-01T17:51:58.019Z,2.90
2022-10-01T17:54:25.254Z,2.97
2022-10-01T17:56:55.365Z,2.40
2022-10-01T17:59:22.209Z,2.30
2022-10-01T18:01:49.468Z,2.80
2022-10-01T18:04:17.190Z,2.63
2022-10-01T18:06:43.943Z,2.40
2022-10-01T18:09:10.653Z,2.03
2022-10-01T18:11:38.275Z,2.43
2022-10-01T18:14:07.530Z,2.53
2022-10-01T18:16:35.340Z,2.43
2022-10-01T18:21:51.011Z,3.00
2022-10-01T18:24:17.916Z,3.40
2022-10-01T18:26:45.701Z,2.70
2022-10-01T18:29:18.639Z,2.67
2022-10-01T18:31:45.550Z,2.90
2022-10-01T18:34:28.592Z,2.63
2022-10-01T18:37:15.350Z,3.23
2022-10-01T18:39:52.592Z,2.50
2022-10-01T18:42:25.114Z,2.60
2022-10-01T18:44:57.886Z,3.30
2022-10-01T18:47:42.653Z,3.30
2022-10-01T18:50:40.280Z,3.77
2022-10-01T18:53:20.167Z,3.43
2022-10-01T18:56:18.754Z,2.43
2022-10-01T18:59:00.479Z,2.80
2022-10-01T19:01:42.073Z,2.77
2022-10-01T19:04:20.181Z,3.53
2022-10-01T19:06:50.290Z,3.20
2022-10-01T19:09:25.562Z,3.30
2022-10-01T19:12:09.826Z,3.43
2022-10-01T19:14:55.970Z,2.57
2022-10-01T19:17:44.133Z,2.90
2022-10-01T19:20:13.945Z,3.17
2022-10-01T19:23:11.769Z,2.80
2022-10-01T19:25:49.923Z,2.17
2022-10-01T19:28:46.225Z,2.93
2022-10-01T19:31:24.799Z,3.10
2022-10-01T19:34:02.262Z,3.23
2022-10-01T19:36:35.301Z,2.80
2022-10-01T19:39:09.519Z,3.60
2022-10-01T19:41:44.369Z,2.90
2022-10-01T19:44:25.529Z,4.27
2022-10-01T19:46:58.408Z,3.30
2022-10-01T19:49:39.110Z,3.60
2022-10-01T19:52:12.849Z,3.17
2022-10-01T19:54:47.099Z,4.60
2022-10-01T19:57:30.716Z,2.57
2022-10-01T20:00:12.326Z,3.40
2022-10-01T20:03:23.471Z,2.73
2022-10-01T20:05:58.420Z,3.10
2022-10-01T20:08:49.857Z,3.10
2022-10-01T20:11:30.175Z,3.73
2022-10-01T20:14:36.468Z,3.67
2022-10-01T20:17:13.329Z,4.43
2022-10-01T20:19:52.754Z,3.63
2022-10-01T20:22:31.830Z,3.30
2022-10-01T20:25:14.249Z,3.50
2022-10-01T20:28:00.921Z,4.80
2022-10-01T20:30:30.199Z,4.00
2022-10-01T20:33:29.257Z,3.57
2022-10-01T20:36:10.668Z,3.20
2022-10-01T20:38:44.717Z,3.73
2022-10-01T20:41:18.084Z,3.70
2022-10-01T20:43:51.081Z,3.37
2022-10-01T20:46:38.853Z,2.90
2022-10-01T20:49:34.258Z,3.20
2022-10-01T20:52:27.167Z,3.07
2022-10-01T20:55:03.741Z,3.70
2022-10-01T20:57:39.495Z,2.77
2022-10-01T21:00:14.221Z,2.70
2022-10-01T21:02:46.480Z,3.60
2022-10-01T21:05:22.100Z,2.80
2022-10-01T21:07:59.313Z,3.10
2022-10-01T21:10:36.259Z,3.80
2022-10-01T21:13:19.807Z,3.10
2022-10-01T21:15:54.815Z,3.33
2022-10-01T21:18:38.940Z,2.70
2022-10-01T21:21:23.217Z,3.33
2022-10-01T21:24:26.041Z,3.90
2022-10-01T21:27:29.959Z,3.13
2022-10-01T21:30:12.558Z,3.07
2022-10-01T21:32:56.833Z,3.90
2022-10-01T21:35:39.284Z,3.60
2022-10-01T21:38:37.808Z,3.00
2022-10-01T21:41:28.231Z,3.93
2022-10-01T21:44:01.519Z,4.93
2022-10-01T21:46:38.348Z,3.47
2022-10-01T21:49:29.881Z,3.63
2022-10-01T21:52:20.186Z,3.17
2022-10-01T21:55:11.223Z,3.17
2022-10-01T21:58:17.233Z,3.23
2022-10-01T22:01:12.424Z,4.33
2022-10-01T22:03:59.626Z,3.93
2022-10-01T22:06:36.083Z,3.57
2022-10-01T22:09:15.623Z,3.63
2022-10-01T22:11:48.640Z,4.23
2022-10-01T22:14:20.772Z,3.97
2022-10-01T22:17:03.572Z,3.00
2022-10-01T22:19:38.185Z,4.10
2022-10-01T22:22:25.612Z,3.60
2022-10-01T22:24:54.365Z,3.83
2022-10-01T22:27:44.329Z,3.73
2022-10-01T22:30:20.503Z,3.20
2022-10-01T22:33:08.329Z,3.57
2022-10-01T22:35:51.379Z,3.90
2022-10-01T22:38:36.038Z,3.90
2022-10-01T22:41:13.556Z,3.40
2022-10-01T22:43:43.396Z,3.53
2022-10-01T22:46:25.152Z,4.10
2022-10-01T22:48:52.734Z,4.20
2022-10-01T22:52:01.671Z,3.53
2022-10-01T22:54:52.841Z,4.53
2022-10-01T22:58:02.901Z,3.80
2022-10-01T23:00:36.465Z,3.47
2022-10-01T23:03:32.527Z,4.30
2022-10-01T23:06:33.771Z,4.27
2022-10-01T23:09:20.395Z,5.10
2022-10-01T23:11:52.826Z,4.20
2022-10-01T23:14:49.816Z,4.53
2022-10-01T23:17:35.325Z,3.73
2022-10-01T23:20:13.048Z,4.00
2022-10-01T23:23:01.349Z,3.53
2022-10-01T23:25:43.939Z,4.23
2022-10-01T23:28:29.074Z,4.00
2022-10-01T23:31:25.953Z,4.67
2022-10-01T23:34:10.219Z,4.33
2022-10-01T23:36:57.143Z,4.13
2022-10-01T23:39:41.766Z,4.70
2022-10-01T23:42:20.849Z,5.17
2022-10-01T23:45:08.817Z,4.47
2022-10-01T23:47:52.856Z,4.30
2022-10-01T23:50:37.425Z,4.70
2022-10-01T23:53:16.416Z,4.20
2022-10-01T23:56:20.799Z,3.83
2022-10-01T23:58:54.423Z,4.03
